sensor_id;sensor_type;location;lat;lon;timestamp;P1;durP1;ratioP1;P2;durP2;ratioP2
15067;SDS011;7633;60.024;18.770;2023-04-29T00:01:25;0.60;;;0.50;;
15067;SDS011;7633;60.024;18.770;2023-04-29T00:03:51;0.53;;;0.53;;
15067;SDS011;7633;60.024;18.770;2023-04-29T00:06:16;0.50;;;0.50;;
15067;SDS011;7633;60.024;18.770;2023-04-29T00:08:42;1.07;;;0.60;;
15067;SDS011;7633;60.024;18.770;2023-04-29T00:11:11;0.50;;;0.50;;
15067;SDS011;7633;60.024;18.770;2023-04-29T00:13:41;0.93;;;0.50;;
15067;SDS011;7633;60.024;18.770;2023-04-29T00:16:07;0.90;;;0.60;;
15067;SDS011;7633;60.024;18.770;2023-04-29T00:18:36;0.70;;;0.60;;
15067;SDS011;7633;60.024;18.770;2023-04-29T00:21:02;0.60;;;0.60;;
15067;SDS011;7633;60.024;18.770;2023-04-29T00:23:30;0.43;;;0.43;;
15067;SDS011;7633;60.024;18.770;2023-04-29T00:25:56;0.50;;;0.50;;
15067;SDS011;7633;60.024;18.770;2023-04-29T00:28:21;0.47;;;0.47;;
15067;SDS011;7633;60.024;18.770;2023-04-29T00:30:47;0.50;;;0.30;;
15067;SDS011;7633;60.024;18.770;2023-04-29T00:33:12;0.53;;;0.50;;
15067;SDS011;7633;60.024;18.770;2023-04-29T00:35:38;0.73;;;0.43;;
15067;SDS011;7633;60.024;18.770;2023-04-29T00:38:03;0.50;;;0.50;;
15067;SDS011;7633;60.024;18.770;2023-04-29T00:40:29;1.17;;;0.60;;
15067;SDS011;7633;60.024;18.770;2023-04-29T00:42:54;0.40;;;0.40;;
15067;SDS011;7633;60.024;18.770;2023-04-29T00:45:20;0.53;;;0.50;;
15067;SDS011;7633;60.024;18.770;2023-04-29T00:47:45;0.60;;;0.60;;
15067;SDS011;7633;60.024;18.770;2023-04-29T00:50:11;0.30;;;0.30;;
15067;SDS011;7633;60.024;18.770;2023-04-29T00:52:37;0.40;;;0.40;;
15067;SDS011;7633;60.024;18.770;2023-04-29T00:55:03;0.60;;;0.60;;
15067;SDS011;7633;60.024;18.770;2023-04-29T00:57:29;0.50;;;0.50;;
15067;SDS011;7633;60.024;18.770;2023-04-29T00:59:56;0.30;;;0.30;;
15067;SDS011;7633;60.024;18.770;2023-04-29T01:02:24;0.43;;;0.43;;
15067;SDS011;7633;60.024;18.770;2023-04-29T01:04:56;0.80;;;0.50;;
15067;SDS011;7633;60.024;18.770;2023-04-29T01:07:25;0.40;;;0.40;;
15067;SDS011;7633;60.024;18.770;2023-04-29T01:10:02;0.40;;;0.37;;
15067;SDS011;7633;60.024;18.770;2023-04-29T01:17:36;0.53;;;0.50;;
15067;SDS011;7633;60.024;18.770;2023-04-29T01:20:04;0.40;;;0.30;;
15067;SDS011;7633;60.024;18.770;2023-04-29T01:22:32;0.60;;;0.53;;
15067;SDS011;7633;60.024;18.770;2023-04-29T01:25:00;0.70;;;0.50;;
15067;SDS011;7633;60.024;18.770;2023-04-29T01:27:36;0.40;;;0.40;;
15067;SDS011;7633;60.024;18.770;2023-04-29T01:35:39;0.43;;;0.43;;
15067;SDS011;7633;60.024;18.770;2023-04-29T01:40:46;0.60;;;0.30;;
15067;SDS011;7633;60.024;18.770;2023-04-29T01:43:13;0.63;;;0.50;;
15067;SDS011;7633;60.024;18.770;2023-04-29T01:45:39;0.43;;;0.43;;
15067;SDS011;7633;60.024;18.770;2023-04-29T01:48:07;0.60;;;0.47;;
15067;SDS011;7633;60.024;18.770;2023-04-29T01:50:35;0.70;;;0.50;;
15067;SDS011;7633;60.024;18.770;2023-04-29T01:53:01;0.50;;;0.40;;
15067;SDS011;7633;60.024;18.770;2023-04-29T01:55:29;0.40;;;0.40;;
15067;SDS011;7633;60.024;18.770;2023-04-29T01:57:59;0.73;;;0.50;;
15067;SDS011;7633;60.024;18.770;2023-04-29T02:00:26;0.77;;;0.40;;
15067;SDS011;7633;60.024;18.770;2023-04-29T02:02:51;0.53;;;0.50;;
15067;SDS011;7633;60.024;18.770;2023-04-29T02:05:18;0.60;;;0.60;;
15067;SDS011;7633;60.024;18.770;2023-04-29T02:07:43;0.57;;;0.57;;
15067;SDS011;7633;60.024;18.770;2023-04-29T02:10:09;0.73;;;0.50;;
15067;SDS011;7633;60.024;18.770;2023-04-29T02:12:34;0.30;;;0.30;;
15067;SDS011;7633;60.024;18.770;2023-04-29T02:15:00;0.40;;;0.40;;
15067;SDS011;7633;60.024;18.770;2023-04-29T02:17:25;0.30;;;0.30;;
15067;SDS011;7633;60.024;18.770;2023-04-29T02:19:51;0.70;;;0.50;;
15067;SDS011;7633;60.024;18.770;2023-04-29T02:22:19;0.50;;;0.40;;
15067;SDS011;7633;60.024;18.770;2023-04-29T02:24:44;0.60;;;0.47;;
15067;SDS011;7633;60.024;18.770;2023-04-29T02:27:09;0.57;;;0.50;;
15067;SDS011;7633;60.024;18.770;2023-04-29T02:29:35;0.30;;;0.30;;
15067;SDS011;7633;60.024;18.770;2023-04-29T02:32:00;0.50;;;0.50;;
15067;SDS011;7633;60.024;18.770;2023-04-29T02:34:26;1.80;;;0.60;;
15067;SDS011;7633;60.024;18.770;2023-04-29T02:36:51;1.10;;;0.70;;
15067;SDS011;7633;60.024;18.770;2023-04-29T02:39:17;0.60;;;0.60;;
15067;SDS011;7633;60.024;18.770;2023-04-29T02:41:44;0.97;;;0.70;;
15067;SDS011;7633;60.024;18.770;2023-04-29T02:44:09;1.33;;;0.60;;
15067;SDS011;7633;60.024;18.770;2023-04-29T02:46:34;0.70;;;0.60;;
15067;SDS011;7633;60.024;18.770;2023-04-29T02:49:00;0.47;;;0.47;;
15067;SDS011;7633;60.024;18.770;2023-04-29T02:51:26;0.60;;;0.40;;
15067;SDS011;7633;60.024;18.770;2023-04-29T02:53:52;0.53;;;0.40;;
15067;SDS011;7633;60.024;18.770;2023-04-29T02:56:17;0.60;;;0.60;;
15067;SDS011;7633;60.024;18.770;2023-04-29T02:58:43;1.67;;;0.50;;
15067;SDS011;7633;60.024;18.770;2023-04-29T03:01:08;0.43;;;0.43;;
15067;SDS011;7633;60.024;18.770;2023-04-29T03:03:33;0.60;;;0.50;;
15067;SDS011;7633;60.024;18.770;2023-04-29T03:05:59;1.47;;;0.60;;
15067;SDS011;7633;60.024;18.770;2023-04-29T03:08:24;0.80;;;0.60;;
15067;SDS011;7633;60.024;18.770;2023-04-29T03:10:49;0.40;;;0.40;;
15067;SDS011;7633;60.024;18.770;2023-04-29T03:13:14;0.50;;;0.50;;
15067;SDS011;7633;60.024;18.770;2023-04-29T03:15:40;0.70;;;0.70;;
15067;SDS011;7633;60.024;18.770;2023-04-29T03:18:06;0.50;;;0.40;;
15067;SDS011;7633;60.024;18.770;2023-04-29T03:20:31;1.73;;;0.63;;
15067;SDS011;7633;60.024;18.770;2023-04-29T03:22:56;0.60;;;0.60;;
15067;SDS011;7633;60.024;18.770;2023-04-29T03:25:22;0.60;;;0.50;;
15067;SDS011;7633;60.024;18.770;2023-04-29T03:27:48;2.53;;;0.50;;
15067;SDS011;7633;60.024;18.770;2023-04-29T03:30:13;0.60;;;0.50;;
15067;SDS011;7633;60.024;18.770;2023-04-29T03:32:38;1.53;;;0.50;;
15067;SDS011;7633;60.024;18.770;2023-04-29T03:35:04;0.80;;;0.60;;
15067;SDS011;7633;60.024;18.770;2023-04-29T03:37:32;0.50;;;0.50;;
15067;SDS011;7633;60.024;18.770;2023-04-29T03:39:57;0.73;;;0.60;;
15067;SDS011;7633;60.024;18.770;2023-04-29T03:42:22;1.53;;;0.60;;
15067;SDS011;7633;60.024;18.770;2023-04-29T03:44:48;1.03;;;0.60;;
15067;SDS011;7633;60.024;18.770;2023-04-29T03:47:13;0.50;;;0.50;;
15067;SDS011;7633;60.024;18.770;2023-04-29T03:49:38;0.60;;;0.60;;
15067;SDS011;7633;60.024;18.770;2023-04-29T03:52:04;0.63;;;0.60;;
15067;SDS011;7633;60.024;18.770;2023-04-29T03:54:29;0.57;;;0.57;;
15067;SDS011;7633;60.024;18.770;2023-04-29T03:56:55;0.67;;;0.60;;
15067;SDS011;7633;60.024;18.770;2023-04-29T03:59:20;0.50;;;0.50;;
15067;SDS011;7633;60.024;18.770;2023-04-29T04:01:45;2.60;;;0.50;;
15067;SDS011;7633;60.024;18.770;2023-04-29T04:04:11;1.00;;;0.77;;
15067;SDS011;7633;60.024;18.770;2023-04-29T04:06:36;0.63;;;0.50;;
15067;SDS011;7633;60.024;18.770;2023-04-29T04:09:01;0.80;;;0.80;;
15067;SDS011;7633;60.024;18.770;2023-04-29T04:11:27;0.50;;;0.50;;
15067;SDS011;7633;60.024;18.770;2023-04-29T04:13:52;0.60;;;0.40;;
15067;SDS011;7633;60.024;18.770;2023-04-29T04:16:17;0.70;;;0.60;;
15067;SDS011;7633;60.024;18.770;2023-04-29T04:18:43;0.67;;;0.60;;
15067;SDS011;7633;60.024;18.770;2023-04-29T04:21:08;0.87;;;0.50;;
15067;SDS011;7633;60.024;18.770;2023-04-29T04:23:34;0.60;;;0.50;;
15067;SDS011;7633;60.024;18.770;2023-04-29T04:25:59;0.83;;;0.80;;
15067;SDS011;7633;60.024;18.770;2023-04-29T04:28:25;0.90;;;0.90;;
15067;SDS011;7633;60.024;18.770;2023-04-29T04:30:50;1.73;;;0.90;;
15067;SDS011;7633;60.024;18.770;2023-04-29T04:33:16;1.20;;;0.80;;
15067;SDS011;7633;60.024;18.770;2023-04-29T04:35:42;0.67;;;0.67;;
15067;SDS011;7633;60.024;18.770;2023-04-29T04:38:07;0.70;;;0.70;;
15067;SDS011;7633;60.024;18.770;2023-04-29T04:40:33;0.67;;;0.60;;
15067;SDS011;7633;60.024;18.770;2023-04-29T04:42:59;1.50;;;0.90;;
15067;SDS011;7633;60.024;18.770;2023-04-29T04:45:25;1.77;;;1.10;;
15067;SDS011;7633;60.024;18.770;2023-04-29T04:47:52;1.40;;;0.77;;
15067;SDS011;7633;60.024;18.770;2023-04-29T04:50:18;1.00;;;0.77;;
15067;SDS011;7633;60.024;18.770;2023-04-29T04:52:43;2.67;;;0.77;;
15067;SDS011;7633;60.024;18.770;2023-04-29T04:55:09;1.53;;;0.90;;
15067;SDS011;7633;60.024;18.770;2023-04-29T04:57:34;1.13;;;0.93;;
15067;SDS011;7633;60.024;18.770;2023-04-29T05:00:00;0.80;;;0.80;;
15067;SDS011;7633;60.024;18.770;2023-04-29T05:02:26;1.13;;;0.70;;
15067;SDS011;7633;60.024;18.770;2023-04-29T05:04:51;0.97;;;0.80;;
15067;SDS011;7633;60.024;18.770;2023-04-29T05:07:17;0.60;;;0.60;;
15067;SDS011;7633;60.024;18.770;2023-04-29T05:09:42;0.50;;;0.50;;
15067;SDS011;7633;60.024;18.770;2023-04-29T05:12:07;0.30;;;0.30;;
15067;SDS011;7633;60.024;18.770;2023-04-29T05:14:32;0.40;;;0.40;;
15067;SDS011;7633;60.024;18.770;2023-04-29T05:16:58;0.40;;;0.40;;
15067;SDS011;7633;60.024;18.770;2023-04-29T05:19:23;0.67;;;0.37;;
15067;SDS011;7633;60.024;18.770;2023-04-29T05:21:49;0.63;;;0.60;;
15067;SDS011;7633;60.024;18.770;2023-04-29T05:24:14;0.83;;;0.40;;
15067;SDS011;7633;60.024;18.770;2023-04-29T05:26:40;0.43;;;0.43;;
15067;SDS011;7633;60.024;18.770;2023-04-29T05:29:07;1.17;;;0.30;;
15067;SDS011;7633;60.024;18.770;2023-04-29T05:31:33;0.83;;;0.40;;
15067;SDS011;7633;60.024;18.770;2023-04-29T05:33:58;0.40;;;0.40;;
15067;SDS011;7633;60.024;18.770;2023-04-29T05:36:23;0.77;;;0.40;;
15067;SDS011;7633;60.024;18.770;2023-04-29T05:38:48;0.43;;;0.43;;
15067;SDS011;7633;60.024;18.770;2023-04-29T05:41:14;0.47;;;0.40;;
15067;SDS011;7633;60.024;18.770;2023-04-29T05:43:39;1.60;;;0.30;;
15067;SDS011;7633;60.024;18.770;2023-04-29T05:46:04;1.30;;;0.43;;
15067;SDS011;7633;60.024;18.770;2023-04-29T05:48:30;0.43;;;0.40;;
15067;SDS011;7633;60.024;18.770;2023-04-29T05:50:55;0.50;;;0.43;;
15067;SDS011;7633;60.024;18.770;2023-04-29T05:53:21;0.20;;;0.20;;
15067;SDS011;7633;60.024;18.770;2023-04-29T05:55:46;0.40;;;0.37;;
15067;SDS011;7633;60.024;18.770;2023-04-29T05:58:11;0.40;;;0.40;;
15067;SDS011;7633;60.024;18.770;2023-04-29T06:00:37;0.10;;;0.10;;
15067;SDS011;7633;60.024;18.770;2023-04-29T06:03:03;0.30;;;0.30;;
15067;SDS011;7633;60.024;18.770;2023-04-29T06:05:28;0.73;;;0.37;;
15067;SDS011;7633;60.024;18.770;2023-04-29T06:07:54;0.40;;;0.40;;
15067;SDS011;7633;60.024;18.770;2023-04-29T06:10:19;0.50;;;0.33;;
15067;SDS011;7633;60.024;18.770;2023-04-29T06:12:44;1.23;;;0.50;;
15067;SDS011;7633;60.024;18.770;2023-04-29T06:15:10;0.47;;;0.40;;
15067;SDS011;7633;60.024;18.770;2023-04-29T06:17:36;0.23;;;0.20;;
15067;SDS011;7633;60.024;18.770;2023-04-29T06:20:01;0.40;;;0.40;;
15067;SDS011;7633;60.024;18.770;2023-04-29T06:22:27;0.30;;;0.30;;
15067;SDS011;7633;60.024;18.770;2023-04-29T06:24:52;0.20;;;0.20;;
15067;SDS011;7633;60.024;18.770;2023-04-29T06:27:17;0.30;;;0.30;;
15067;SDS011;7633;60.024;18.770;2023-04-29T06:29:43;1.07;;;0.23;;
15067;SDS011;7633;60.024;18.770;2023-04-29T06:32:08;0.30;;;0.30;;
15067;SDS011;7633;60.024;18.770;2023-04-29T06:34:33;0.30;;;0.30;;
15067;SDS011;7633;60.024;18.770;2023-04-29T06:36:59;0.40;;;0.40;;
15067;SDS011;7633;60.024;18.770;2023-04-29T06:39:24;0.20;;;0.20;;
15067;SDS011;7633;60.024;18.770;2023-04-29T06:41:49;0.43;;;0.37;;
15067;SDS011;7633;60.024;18.770;2023-04-29T06:44:16;0.50;;;0.50;;
15067;SDS011;7633;60.024;18.770;2023-04-29T06:46:42;0.20;;;0.20;;
15067;SDS011;7633;60.024;18.770;2023-04-29T06:49:07;0.70;;;0.30;;
15067;SDS011;7633;60.024;18.770;2023-04-29T06:51:32;0.40;;;0.40;;
15067;SDS011;7633;60.024;18.770;2023-04-29T06:53:58;0.67;;;0.47;;
15067;SDS011;7633;60.024;18.770;2023-04-29T06:56:23;0.30;;;0.30;;
15067;SDS011;7633;60.024;18.770;2023-04-29T06:58:49;0.50;;;0.50;;
15067;SDS011;7633;60.024;18.770;2023-04-29T07:01:14;0.30;;;0.30;;
15067;SDS011;7633;60.024;18.770;2023-04-29T07:03:40;0.40;;;0.23;;
15067;SDS011;7633;60.024;18.770;2023-04-29T07:06:06;0.17;;;0.17;;
15067;SDS011;7633;60.024;18.770;2023-04-29T07:08:31;0.63;;;0.30;;
15067;SDS011;7633;60.024;18.770;2023-04-29T07:10:57;0.20;;;0.20;;
15067;SDS011;7633;60.024;18.770;2023-04-29T07:13:23;0.30;;;0.30;;
15067;SDS011;7633;60.024;18.770;2023-04-29T07:15:48;0.27;;;0.27;;
15067;SDS011;7633;60.024;18.770;2023-04-29T07:18:13;0.20;;;0.20;;
15067;SDS011;7633;60.024;18.770;2023-04-29T07:20:39;0.30;;;0.20;;
15067;SDS011;7633;60.024;18.770;2023-04-29T07:23:04;0.50;;;0.40;;
15067;SDS011;7633;60.024;18.770;2023-04-29T07:25:29;0.40;;;0.30;;
15067;SDS011;7633;60.024;18.770;2023-04-29T07:27:55;0.30;;;0.30;;
15067;SDS011;7633;60.024;18.770;2023-04-29T07:30:21;0.20;;;0.20;;
15067;SDS011;7633;60.024;18.770;2023-04-29T07:32:47;0.40;;;0.40;;
15067;SDS011;7633;60.024;18.770;2023-04-29T07:35:12;0.30;;;0.20;;
15067;SDS011;7633;60.024;18.770;2023-04-29T07:37:38;1.40;;;0.33;;
15067;SDS011;7633;60.024;18.770;2023-04-29T07:40:03;0.30;;;0.30;;
15067;SDS011;7633;60.024;18.770;2023-04-29T07:42:29;0.30;;;0.30;;
15067;SDS011;7633;60.024;18.770;2023-04-29T07:44:54;0.87;;;0.40;;
15067;SDS011;7633;60.024;18.770;2023-04-29T07:47:20;0.77;;;0.50;;
15067;SDS011;7633;60.024;18.770;2023-04-29T07:49:45;1.03;;;0.47;;
15067;SDS011;7633;60.024;18.770;2023-04-29T07:52:10;0.30;;;0.30;;
15067;SDS011;7633;60.024;18.770;2023-04-29T07:54:36;0.90;;;0.40;;
15067;SDS011;7633;60.024;18.770;2023-04-29T07:57:01;0.40;;;0.40;;
15067;SDS011;7633;60.024;18.770;2023-04-29T07:59:28;1.70;;;0.77;;
15067;SDS011;7633;60.024;18.770;2023-04-29T08:01:53;0.83;;;0.70;;
15067;SDS011;7633;60.024;18.770;2023-04-29T08:04:19;0.67;;;0.40;;
15067;SDS011;7633;60.024;18.770;2023-04-29T08:06:45;0.37;;;0.37;;
15067;SDS011;7633;60.024;18.770;2023-04-29T08:09:10;0.93;;;0.40;;
15067;SDS011;7633;60.024;18.770;2023-04-29T08:11:36;1.33;;;0.30;;
15067;SDS011;7633;60.024;18.770;2023-04-29T08:14:01;0.80;;;0.40;;
15067;SDS011;7633;60.024;18.770;2023-04-29T08:16:26;1.30;;;0.40;;
15067;SDS011;7633;60.024;18.770;2023-04-29T08:18:52;0.53;;;0.53;;
15067;SDS011;7633;60.024;18.770;2023-04-29T08:21:18;1.17;;;0.50;;
15067;SDS011;7633;60.024;18.770;2023-04-29T08:23:44;0.53;;;0.53;;
15067;SDS011;7633;60.024;18.770;2023-04-29T08:26:09;1.10;;;0.60;;
15067;SDS011;7633;60.024;18.770;2023-04-29T08:28:35;0.50;;;0.50;;
15067;SDS011;7633;60.024;18.770;2023-04-29T08:31:00;1.20;;;0.60;;
15067;SDS011;7633;60.024;18.770;2023-04-29T08:33:26;0.57;;;0.43;;
15067;SDS011;7633;60.024;18.770;2023-04-29T08:35:57;2.17;;;0.70;;
15067;SDS011;7633;60.024;18.770;2023-04-29T08:38:24;2.03;;;0.63;;
15067;SDS011;7633;60.024;18.770;2023-04-29T08:40:49;1.37;;;0.67;;
15067;SDS011;7633;60.024;18.770;2023-04-29T08:43:15;0.50;;;0.50;;
15067;SDS011;7633;60.024;18.770;2023-04-29T08:45:41;1.13;;;0.53;;
15067;SDS011;7633;60.024;18.770;2023-04-29T08:48:07;0.73;;;0.50;;
15067;SDS011;7633;60.024;18.770;2023-04-29T08:50:37;1.25;;;0.70;;
15067;SDS011;7633;60.024;18.770;2023-04-29T08:53:06;0.70;;;0.60;;
15067;SDS011;7633;60.024;18.770;2023-04-29T08:55:35;0.40;;;0.40;;
15067;SDS011;7633;60.024;18.770;2023-04-29T08:58:00;0.50;;;0.50;;
15067;SDS011;7633;60.024;18.770;2023-04-29T09:00:26;1.13;;;0.47;;
15067;SDS011;7633;60.024;18.770;2023-04-29T09:02:52;0.60;;;0.50;;
15067;SDS011;7633;60.024;18.770;2023-04-29T09:05:18;1.38;;;0.55;;
15067;SDS011;7633;60.024;18.770;2023-04-29T09:07:43;0.47;;;0.47;;
15067;SDS011;7633;60.024;18.770;2023-04-29T09:10:10;1.13;;;0.60;;
15067;SDS011;7633;60.024;18.770;2023-04-29T09:12:36;0.52;;;0.50;;
15067;SDS011;7633;60.024;18.770;2023-04-29T09:15:01;0.73;;;0.40;;
15067;SDS011;7633;60.024;18.770;2023-04-29T09:17:43;0.93;;;0.70;;
15067;SDS011;7633;60.024;18.770;2023-04-29T09:22:50;0.43;;;0.40;;
15067;SDS011;7633;60.024;18.770;2023-04-29T09:25:16;0.50;;;0.40;;
15067;SDS011;7633;60.024;18.770;2023-04-29T09:27:41;0.60;;;0.60;;
15067;SDS011;7633;60.024;18.770;2023-04-29T09:30:07;0.30;;;0.30;;
15067;SDS011;7633;60.024;18.770;2023-04-29T09:32:32;0.77;;;0.55;;
15067;SDS011;7633;60.024;18.770;2023-04-29T09:34:58;1.07;;;0.70;;
15067;SDS011;7633;60.024;18.770;2023-04-29T09:37:24;0.45;;;0.45;;
15067;SDS011;7633;60.024;18.770;2023-04-29T09:39:50;0.47;;;0.47;;
15067;SDS011;7633;60.024;18.770;2023-04-29T09:42:15;1.60;;;0.50;;
15067;SDS011;7633;60.024;18.770;2023-04-29T09:44:41;0.97;;;0.60;;
15067;SDS011;7633;60.024;18.770;2023-04-29T09:47:07;0.97;;;0.60;;
15067;SDS011;7633;60.024;18.770;2023-04-29T09:49:40;1.00;;;0.70;;
15067;SDS011;7633;60.024;18.770;2023-04-29T09:52:09;0.70;;;0.50;;
15067;SDS011;7633;60.024;18.770;2023-04-29T09:54:36;0.30;;;0.30;;
15067;SDS011;7633;60.024;18.770;2023-04-29T09:57:02;0.40;;;0.40;;
15067;SDS011;7633;60.024;18.770;2023-04-29T09:59:31;0.67;;;0.40;;
15067;SDS011;7633;60.024;18.770;2023-04-29T10:01:57;0.70;;;0.50;;
15067;SDS011;7633;60.024;18.770;2023-04-29T10:04:23;0.40;;;0.40;;
15067;SDS011;7633;60.024;18.770;2023-04-29T10:06:50;0.83;;;0.50;;
15067;SDS011;7633;60.024;18.770;2023-04-29T10:09:15;1.80;;;0.60;;
15067;SDS011;7633;60.024;18.770;2023-04-29T10:11:41;0.50;;;0.50;;
15067;SDS011;7633;60.024;18.770;2023-04-29T10:14:11;0.20;;;0.20;;
15067;SDS011;7633;60.024;18.770;2023-04-29T10:16:38;0.30;;;0.30;;
15067;SDS011;7633;60.024;18.770;2023-04-29T10:19:10;0.33;;;0.30;;
15067;SDS011;7633;60.024;18.770;2023-04-29T10:21:36;0.47;;;0.47;;
15067;SDS011;7633;60.024;18.770;2023-04-29T10:24:02;0.40;;;0.40;;
15067;SDS011;7633;60.024;18.770;2023-04-29T10:26:28;0.37;;;0.37;;
15067;SDS011;7633;60.024;18.770;2023-04-29T10:28:54;1.03;;;0.50;;
15067;SDS011;7633;60.024;18.770;2023-04-29T10:31:20;0.53;;;0.53;;
15067;SDS011;7633;60.024;18.770;2023-04-29T10:33:46;0.60;;;0.50;;
15067;SDS011;7633;60.024;18.770;2023-04-29T10:36:12;0.60;;;0.60;;
15067;SDS011;7633;60.024;18.770;2023-04-29T10:38:39;1.37;;;0.57;;
15067;SDS011;7633;60.024;18.770;2023-04-29T10:41:08;0.70;;;0.70;;
15067;SDS011;7633;60.024;18.770;2023-04-29T10:43:34;0.63;;;0.50;;
15067;SDS011;7633;60.024;18.770;2023-04-29T10:48:42;0.77;;;0.70;;
15067;SDS011;7633;60.024;18.770;2023-04-29T10:51:07;1.33;;;0.50;;
15067;SDS011;7633;60.024;18.770;2023-04-29T10:53:32;0.70;;;0.67;;
15067;SDS011;7633;60.024;18.770;2023-04-29T10:55:59;0.67;;;0.67;;
15067;SDS011;7633;60.024;18.770;2023-04-29T11:00:58;0.23;;;0.23;;
15067;SDS011;7633;60.024;18.770;2023-04-29T11:08:59;1.47;;;0.70;;
15067;SDS011;7633;60.024;18.770;2023-04-29T11:11:25;1.53;;;0.73;;
15067;SDS011;7633;60.024;18.770;2023-04-29T11:13:51;0.77;;;0.47;;
15067;SDS011;7633;60.024;18.770;2023-04-29T11:16:16;0.73;;;0.53;;
15067;SDS011;7633;60.024;18.770;2023-04-29T11:19:06;1.83;;;0.87;;
15067;SDS011;7633;60.024;18.770;2023-04-29T11:21:35;0.90;;;0.83;;
15067;SDS011;7633;60.024;18.770;2023-04-29T11:24:01;0.60;;;0.60;;
15067;SDS011;7633;60.024;18.770;2023-04-29T11:26:27;1.27;;;0.53;;
15067;SDS011;7633;60.024;18.770;2023-04-29T11:28:52;0.80;;;0.80;;
15067;SDS011;7633;60.024;18.770;2023-04-29T11:31:18;0.77;;;0.77;;
15067;SDS011;7633;60.024;18.770;2023-04-29T11:33:43;1.07;;;0.87;;
15067;SDS011;7633;60.024;18.770;2023-04-29T11:36:12;0.93;;;0.90;;
15067;SDS011;7633;60.024;18.770;2023-04-29T11:38:38;1.03;;;0.50;;
15067;SDS011;7633;60.024;18.770;2023-04-29T11:41:04;1.40;;;0.90;;
15067;SDS011;7633;60.024;18.770;2023-04-29T11:43:30;0.87;;;0.60;;
15067;SDS011;7633;60.024;18.770;2023-04-29T11:45:55;0.50;;;0.43;;
15067;SDS011;7633;60.024;18.770;2023-04-29T11:48:21;1.27;;;0.90;;
15067;SDS011;7633;60.024;18.770;2023-04-29T11:50:48;2.53;;;1.10;;
15067;SDS011;7633;60.024;18.770;2023-04-29T11:53:14;1.80;;;0.93;;
15067;SDS011;7633;60.024;18.770;2023-04-29T11:55:43;0.83;;;0.67;;
15067;SDS011;7633;60.024;18.770;2023-04-29T11:58:09;1.47;;;0.87;;
15067;SDS011;7633;60.024;18.770;2023-04-29T12:00:35;0.80;;;0.80;;
15067;SDS011;7633;60.024;18.770;2023-04-29T12:03:00;1.17;;;1.07;;
15067;SDS011;7633;60.024;18.770;2023-04-29T12:05:25;1.67;;;0.60;;
15067;SDS011;7633;60.024;18.770;2023-04-29T12:07:51;2.10;;;1.00;;
15067;SDS011;7633;60.024;18.770;2023-04-29T12:10:16;0.77;;;0.70;;
15067;SDS011;7633;60.024;18.770;2023-04-29T12:12:42;1.77;;;0.90;;
15067;SDS011;7633;60.024;18.770;2023-04-29T12:15:11;2.80;;;0.90;;
15067;SDS011;7633;60.024;18.770;2023-04-29T12:17:37;1.20;;;0.90;;
15067;SDS011;7633;60.024;18.770;2023-04-29T12:20:02;2.80;;;0.90;;
15067;SDS011;7633;60.024;18.770;2023-04-29T12:22:31;1.00;;;0.90;;
15067;SDS011;7633;60.024;18.770;2023-04-29T12:24:56;1.10;;;0.70;;
15067;SDS011;7633;60.024;18.770;2023-04-29T12:27:22;1.40;;;1.20;;
15067;SDS011;7633;60.024;18.770;2023-04-29T12:29:48;2.60;;;0.93;;
15067;SDS011;7633;60.024;18.770;2023-04-29T12:32:16;1.33;;;0.73;;
15067;SDS011;7633;60.024;18.770;2023-04-29T12:34:41;1.53;;;1.00;;
15067;SDS011;7633;60.024;18.770;2023-04-29T12:37:08;1.67;;;1.10;;
15067;SDS011;7633;60.024;18.770;2023-04-29T12:39:33;2.13;;;0.83;;
15067;SDS011;7633;60.024;18.770;2023-04-29T12:42:00;1.77;;;1.10;;
15067;SDS011;7633;60.024;18.770;2023-04-29T12:44:35;1.60;;;0.90;;
15067;SDS011;7633;60.024;18.770;2023-04-29T12:47:08;1.87;;;0.70;;
15067;SDS011;7633;60.024;18.770;2023-04-29T12:49:33;1.00;;;0.90;;
15067;SDS011;7633;60.024;18.770;2023-04-29T12:51:59;1.23;;;0.80;;
15067;SDS011;7633;60.024;18.770;2023-04-29T12:54:25;0.87;;;0.57;;
15067;SDS011;7633;60.024;18.770;2023-04-29T12:56:50;2.03;;;1.40;;
15067;SDS011;7633;60.024;18.770;2023-04-29T12:59:16;1.03;;;0.77;;
15067;SDS011;7633;60.024;18.770;2023-04-29T13:01:41;1.67;;;0.90;;
15067;SDS011;7633;60.024;18.770;2023-04-29T13:04:06;2.03;;;0.80;;
15067;SDS011;7633;60.024;18.770;2023-04-29T13:06:33;1.10;;;0.80;;
15067;SDS011;7633;60.024;18.770;2023-04-29T13:08:59;1.43;;;0.80;;
15067;SDS011;7633;60.024;18.770;2023-04-29T13:11:24;1.87;;;0.67;;
15067;SDS011;7633;60.024;18.770;2023-04-29T13:13:50;1.23;;;0.67;;
15067;SDS011;7633;60.024;18.770;2023-04-29T13:16:15;1.83;;;0.90;;
15067;SDS011;7633;60.024;18.770;2023-04-29T13:18:41;1.33;;;0.43;;
15067;SDS011;7633;60.024;18.770;2023-04-29T13:21:06;1.30;;;0.73;;
15067;SDS011;7633;60.024;18.770;2023-04-29T13:23:32;0.60;;;0.60;;
15067;SDS011;7633;60.024;18.770;2023-04-29T13:25:57;3.03;;;0.57;;
15067;SDS011;7633;60.024;18.770;2023-04-29T13:28:23;2.13;;;0.50;;
15067;SDS011;7633;60.024;18.770;2023-04-29T13:30:48;0.50;;;0.30;;
15067;SDS011;7633;60.024;18.770;2023-04-29T13:33:14;0.60;;;0.30;;
15067;SDS011;7633;60.024;18.770;2023-04-29T13:35:40;1.70;;;0.73;;
15067;SDS011;7633;60.024;18.770;2023-04-29T13:38:05;0.57;;;0.50;;
15067;SDS011;7633;60.024;18.770;2023-04-29T13:40:31;2.40;;;0.70;;
15067;SDS011;7633;60.024;18.770;2023-04-29T13:42:56;0.80;;;0.60;;
15067;SDS011;7633;60.024;18.770;2023-04-29T13:45:21;0.30;;;0.30;;
15067;SDS011;7633;60.024;18.770;2023-04-29T13:47:47;2.07;;;0.60;;
15067;SDS011;7633;60.024;18.770;2023-04-29T13:50:12;1.63;;;0.73;;
15067;SDS011;7633;60.024;18.770;2023-04-29T13:52:38;1.43;;;0.90;;
15067;SDS011;7633;60.024;18.770;2023-04-29T13:55:04;0.70;;;0.50;;
15067;SDS011;7633;60.024;18.770;2023-04-29T13:57:29;0.63;;;0.63;;
15067;SDS011;7633;60.024;18.770;2023-04-29T13:59:54;1.00;;;0.70;;
15067;SDS011;7633;60.024;18.770;2023-04-29T14:02:20;1.37;;;0.60;;
15067;SDS011;7633;60.024;18.770;2023-04-29T14:04:45;0.77;;;0.70;;
15067;SDS011;7633;60.024;18.770;2023-04-29T14:07:12;0.43;;;0.43;;
15067;SDS011;7633;60.024;18.770;2023-04-29T14:09:37;2.13;;;1.37;;
15067;SDS011;7633;60.024;18.770;2023-04-29T14:12:03;1.27;;;0.67;;
15067;SDS011;7633;60.024;18.770;2023-04-29T14:14:29;1.63;;;0.87;;
15067;SDS011;7633;60.024;18.770;2023-04-29T14:16:54;2.63;;;0.60;;
15067;SDS011;7633;60.024;18.770;2023-04-29T14:19:19;0.33;;;0.33;;
15067;SDS011;7633;60.024;18.770;2023-04-29T14:21:45;0.77;;;0.77;;
15067;SDS011;7633;60.024;18.770;2023-04-29T14:24:10;0.70;;;0.70;;
15067;SDS011;7633;60.024;18.770;2023-04-29T14:26:35;1.53;;;0.93;;
15067;SDS011;7633;60.024;18.770;2023-04-29T14:29:01;0.90;;;0.63;;
15067;SDS011;7633;60.024;18.770;2023-04-29T14:31:27;1.20;;;0.60;;
15067;SDS011;7633;60.024;18.770;2023-04-29T14:33:53;1.17;;;0.53;;
15067;SDS011;7633;60.024;18.770;2023-04-29T14:36:19;1.20;;;0.77;;
15067;SDS011;7633;60.024;18.770;2023-04-29T14:38:44;1.30;;;0.60;;
15067;SDS011;7633;60.024;18.770;2023-04-29T14:41:09;2.80;;;1.30;;
15067;SDS011;7633;60.024;18.770;2023-04-29T14:43:35;3.20;;;1.00;;
15067;SDS011;7633;60.024;18.770;2023-04-29T14:46:00;0.63;;;0.50;;
15067;SDS011;7633;60.024;18.770;2023-04-29T14:48:25;1.87;;;0.77;;
15067;SDS011;7633;60.024;18.770;2023-04-29T14:50:51;0.90;;;0.70;;
15067;SDS011;7633;60.024;18.770;2023-04-29T14:53:16;1.23;;;1.00;;
15067;SDS011;7633;60.024;18.770;2023-04-29T14:55:42;1.10;;;0.90;;
15067;SDS011;7633;60.024;18.770;2023-04-29T14:58:07;1.07;;;0.80;;
15067;SDS011;7633;60.024;18.770;2023-04-29T15:00:34;1.63;;;0.97;;
15067;SDS011;7633;60.024;18.770;2023-04-29T15:03:00;0.93;;;0.87;;
15067;SDS011;7633;60.024;18.770;2023-04-29T15:05:25;1.33;;;0.97;;
15067;SDS011;7633;60.024;18.770;2023-04-29T15:07:51;3.20;;;1.53;;